createdAt,value
2022-08-12T00:04:47.850Z,23.38
2022-08-12T00:09:50.082Z,23.35
2022-08-12T00:14:54.762Z,23.27
2022-08-12T00:19:56.906Z,23.23
2022-08-12T00:24:58.825Z,23.18
2022-08-12T00:30:04.154Z,23.10
2022-08-12T00:35:08.919Z,23.00
2022-08-12T00:40:12.039Z,22.91
2022-08-12T00:45:04.385Z,22.84
2022-08-12T00:49:53.983Z,22.84
2022-08-12T00:54:44.464Z,22.77
2022-08-12T00:59:34.019Z,22.68
2022-08-12T01:04:40.100Z,22.68
2022-08-12T01:09:42.218Z,22.67
2022-08-12T01:14:31.876Z,22.66
2022-08-12T01:19:24.160Z,22.59
2022-08-12T01:24:31.479Z,22.52
2022-08-12T01:29:26.844Z,22.40
2022-08-12T01:34:35.797Z,22.30
2022-08-12T01:39:32.378Z,22.21
2022-08-12T01:44:26.168Z,22.18
2022-08-12T01:49:25.070Z,22.14
2022-08-12T01:54:15.506Z,22.09
2022-08-12T01:59:18.195Z,22.01
2022-08-12T02:04:30.867Z,21.89
2022-08-12T02:09:36.479Z,21.79
2022-08-12T02:14:45.230Z,21.74
2022-08-12T02:19:47.057Z,21.65
2022-08-12T02:24:37.352Z,21.56
2022-08-12T02:29:27.010Z,21.54
2022-08-12T02:34:17.717Z,21.50
2022-08-12T02:39:10.987Z,21.44
2022-08-12T02:44:03.638Z,21.35
2022-08-12T02:48:53.914Z,21.29
2022-08-12T02:53:43.436Z,21.25
2022-08-12T02:58:41.237Z,21.18
2022-08-12T03:03:38.922Z,21.11
2022-08-12T03:08:31.938Z,21.08
2022-08-12T03:13:27.870Z,21.07
2022-08-12T03:18:23.528Z,21.05
2022-08-12T03:23:21.603Z,21.02
2022-08-12T03:28:44.531Z,20.96
2022-08-12T03:33:37.759Z,20.81
2022-08-12T03:38:29.321Z,20.72
2022-08-12T03:43:33.537Z,20.67
2022-08-12T03:48:35.678Z,20.56
2022-08-12T03:53:41.901Z,20.49
2022-08-12T03:58:43.834Z,20.47
2022-08-12T04:03:45.833Z,20.44
2022-08-12T04:08:38.203Z,20.43
2022-08-12T04:13:27.599Z,20.42
2022-08-12T04:18:18.405Z,20.39
2022-08-12T04:23:08.474Z,20.31
2022-08-12T04:28:12.993Z,20.29
2022-08-12T04:33:03.213Z,20.21
2022-08-12T04:38:00.408Z,20.06
2022-08-12T04:42:51.438Z,19.96
2022-08-12T04:47:43.509Z,19.90
2022-08-12T04:52:35.133Z,19.87
2022-08-12T04:57:24.584Z,19.86
2022-08-12T05:02:16.493Z,19.86
2022-08-12T05:07:09.873Z,19.86
2022-08-12T05:11:59.621Z,19.86
2022-08-12T05:16:49.026Z,19.85
2022-08-12T05:21:39.711Z,19.88
2022-08-12T05:26:34.040Z,19.93
2022-08-12T05:31:42.554Z,19.93
2022-08-12T05:36:33.917Z,19.94
2022-08-12T05:41:24.716Z,20.01
2022-08-12T05:46:21.504Z,20.05
2022-08-12T05:51:14.125Z,20.07
2022-08-12T05:56:04.326Z,20.03
2022-08-12T06:00:57.525Z,20.05
2022-08-12T06:05:55.064Z,20.06
2022-08-12T06:10:48.875Z,20.15
2022-08-12T06:15:41.154Z,20.17
2022-08-12T06:20:34.319Z,20.17
2022-08-12T06:25:29.315Z,20.22
2022-08-12T06:30:33.651Z,20.31
2022-08-12T06:35:46.860Z,20.32
2022-08-12T06:40:52.387Z,20.35
2022-08-12T06:45:46.697Z,20.45
2022-08-12T06:50:40.209Z,20.52
2022-08-12T06:55:30.248Z,20.59
2022-08-12T07:00:28.485Z,20.67
2022-08-12T07:05:24.734Z,20.74
2022-08-12T07:10:14.060Z,20.79
2022-08-12T07:15:03.457Z,20.92
2022-08-12T07:20:00.516Z,21.01
2022-08-12T07:25:13.233Z,21.11
2022-08-12T07:30:04.762Z,21.16
2022-08-12T07:34:57.534Z,21.28
2022-08-12T07:39:50.985Z,21.33
2022-08-12T07:44:51.706Z,21.43
2022-08-12T07:50:05.176Z,21.52
2022-08-12T07:54:53.602Z,21.63
2022-08-12T07:59:43.068Z,21.74
2022-08-12T08:04:44.941Z,21.88
2022-08-12T08:09:34.431Z,22.05
2022-08-12T08:14:29.403Z,22.33
2022-08-12T08:19:23.628Z,22.67
2022-08-12T08:24:18.622Z,23.01
2022-08-12T08:29:08.929Z,23.42
2022-08-12T08:34:49.032Z,23.74
2022-08-12T08:39:15.565Z,24.10
2022-08-12T08:44:05.855Z,24.41
2022-08-12T08:48:59.049Z,24.67
2022-08-12T08:53:53.615Z,25.03
2022-08-12T08:58:45.546Z,25.35
2022-08-12T09:14:12.523Z,26.37
2022-08-12T09:19:08.316Z,26.83
2022-08-12T09:24:20.724Z,27.25
2022-08-12T09:30:10.662Z,27.62
2022-08-12T09:34:37.689Z,28.01
2022-08-12T09:40:05.800Z,28.45
2022-08-12T09:45:03.648Z,28.87
2022-08-12T09:50:07.305Z,29.24
2022-08-12T09:56:05.284Z,29.53
2022-08-12T10:00:35.213Z,29.83
2022-08-12T10:06:26.591Z,30.13
2022-08-12T10:10:59.371Z,30.43
2022-08-12T10:16:01.513Z,30.70
2022-08-12T10:20:53.833Z,31.04
2022-08-12T10:26:33.944Z,31.27
2022-08-12T10:31:16.291Z,31.39
2022-08-12T10:36:08.088Z,31.50
2022-08-12T10:41:12.297Z,31.69
2022-08-12T10:46:17.152Z,31.77
2022-08-12T10:51:51.928Z,31.77
2022-08-12T10:56:25.110Z,32.05
2022-08-12T11:04:19.751Z,32.36
2022-08-12T11:07:07.541Z,32.55
2022-08-12T11:12:36.914Z,32.49
2022-08-12T11:17:43.073Z,32.37
2022-08-12T11:22:24.028Z,32.49
2022-08-12T11:27:13.908Z,32.37
2022-08-12T11:32:04.471Z,32.40
2022-08-12T11:36:57.134Z,32.36
2022-08-12T11:41:47.887Z,32.36
2022-08-12T11:46:38.064Z,32.41
2022-08-12T11:51:27.480Z,32.34
2022-08-12T11:56:38.544Z,32.47
2022-08-12T12:01:58.882Z,32.64
2022-08-12T12:06:38.783Z,32.86
2022-08-12T12:11:48.610Z,33.01
2022-08-12T12:16:40.089Z,33.08
2022-08-12T12:21:46.960Z,33.09
2022-08-12T12:26:41.268Z,32.97
2022-08-12T12:32:09.056Z,32.98
2022-08-12T12:36:42.640Z,32.95
2022-08-12T12:42:42.141Z,33.06
2022-08-12T12:46:44.683Z,33.03
2022-08-12T12:52:02.005Z,32.96
2022-08-12T12:56:50.105Z,32.86
2022-08-12T13:01:42.337Z,32.77
2022-08-12T13:06:35.466Z,32.60
2022-08-12T13:11:39.213Z,32.69
2022-08-12T13:16:31.778Z,32.71
2022-08-12T13:21:32.658Z,32.81
2022-08-12T13:26:33.176Z,32.88
2022-08-12T13:31:27.248Z,33.07
2022-08-12T13:36:18.894Z,33.22
2022-08-12T13:41:11.079Z,33.26
2022-08-12T13:46:04.273Z,33.20
2022-08-12T13:50:53.896Z,33.17
2022-08-12T13:55:45.421Z,33.15
2022-08-12T14:00:39.081Z,33.25
2022-08-12T14:05:38.868Z,33.32
2022-08-12T14:10:51.032Z,33.38
2022-08-12T14:15:42.425Z,33.35
2022-08-12T14:20:40.369Z,33.45
2022-08-12T14:25:34.783Z,33.47
2022-08-12T14:30:31.051Z,33.58
2022-08-12T14:35:24.516Z,33.69
2022-08-12T14:40:22.819Z,33.61
2022-08-12T14:45:22.818Z,33.63
2022-08-12T14:50:58.126Z,33.70
2022-08-12T14:56:59.821Z,33.71
2022-08-12T15:00:56.338Z,33.59
2022-08-12T15:06:05.420Z,33.44
2022-08-12T15:11:03.699Z,33.37
2022-08-12T15:15:55.255Z,33.45
2022-08-12T15:20:48.067Z,33.53
2022-08-12T15:25:47.313Z,33.58
2022-08-12T15:30:40.599Z,33.68
2022-08-12T15:35:38.089Z,33.77
2022-08-12T15:40:30.269Z,33.79
2022-08-12T15:45:23.505Z,33.73
2022-08-12T15:50:23.276Z,33.67
2022-08-12T15:55:16.769Z,33.67
2022-08-12T16:00:09.347Z,33.64
2022-08-12T16:06:13.107Z,33.56
2022-08-12T16:10:30.787Z,33.53
2022-08-12T16:15:21.561Z,33.54
2022-08-12T16:20:18.066Z,33.48
2022-08-12T16:25:10.454Z,33.46
2022-08-12T16:30:10.924Z,33.41
2022-08-12T16:35:00.884Z,33.36
2022-08-12T16:40:01.229Z,33.33
2022-08-12T16:44:51.635Z,33.30
2022-08-12T16:49:54.896Z,33.27
2022-08-12T16:54:48.018Z,33.20
2022-08-12T16:59:54.012Z,33.17
2022-08-12T17:04:52.974Z,33.09
2022-08-12T17:09:43.285Z,33.09
2022-08-12T17:14:34.494Z,33.05
2022-08-12T17:20:30.371Z,33.01
2022-08-12T17:24:44.100Z,32.95
2022-08-12T17:30:02.510Z,32.88
2022-08-12T17:35:06.821Z,32.78
2022-08-12T17:40:12.631Z,32.66
2022-08-12T17:45:18.066Z,32.58
2022-08-12T17:50:08.892Z,32.49
2022-08-12T17:55:43.639Z,32.40
2022-08-12T18:00:25.579Z,32.30
2022-08-12T18:05:18.181Z,32.16
2022-08-12T18:10:43.013Z,32.02
2022-08-12T18:16:04.064Z,31.87
2022-08-12T18:20:46.746Z,31.78
2022-08-12T18:26:15.154Z,31.66
2022-08-12T18:31:03.876Z,31.51
2022-08-12T18:35:55.336Z,31.36
2022-08-12T18:41:01.317Z,31.24
2022-08-12T18:45:57.029Z,31.09
2022-08-12T18:50:50.966Z,30.95
2022-08-12T18:55:42.278Z,30.83
2022-08-12T19:00:55.246Z,30.68
2022-08-12T19:05:54.728Z,30.50
2022-08-12T19:10:50.745Z,30.37
2022-08-12T19:15:43.276Z,30.22
2022-08-12T19:20:39.496Z,30.07
2022-08-12T19:25:59.355Z,29.94
2022-08-12T19:30:54.702Z,29.81
2022-08-12T19:36:24.027Z,29.66
2022-08-12T19:41:00.900Z,29.49
2022-08-12T19:46:00.043Z,29.34
2022-08-12T19:50:56.802Z,29.21
2022-08-12T19:55:52.553Z,29.08
2022-08-12T20:00:52.750Z,28.95
2022-08-12T20:06:05.171Z,28.85
2022-08-12T20:12:13.146Z,28.75
2022-08-12T20:16:45.500Z,28.63
2022-08-12T20:21:24.734Z,28.52
2022-08-12T20:26:18.132Z,28.41
2022-08-12T20:31:08.333Z,28.26
2022-08-12T20:36:06.458Z,28.17
2022-08-12T20:41:21.889Z,28.04
2022-08-12T20:46:23.342Z,27.94
2022-08-12T20:51:19.424Z,27.84
2022-08-12T20:56:19.489Z,27.73
2022-08-12T21:01:18.567Z,27.60
2022-08-12T21:06:38.204Z,27.50
2022-08-12T21:11:28.586Z,27.40
2022-08-12T21:16:31.466Z,27.29
2022-08-12T21:21:46.870Z,27.12
2022-08-12T21:26:40.064Z,26.95
2022-08-12T21:32:39.455Z,26.77
2022-08-12T21:36:48.431Z,26.55
2022-08-12T21:41:40.658Z,26.41
2022-08-12T21:46:34.539Z,26.26
2022-08-12T21:51:26.563Z,26.03
2022-08-12T21:56:37.220Z,25.84
2022-08-12T22:01:27.408Z,25.74
2022-08-12T22:06:26.437Z,25.70
2022-08-12T22:11:41.513Z,25.69
2022-08-12T22:16:35.631Z,25.56
2022-08-12T22:21:38.052Z,25.39
2022-08-12T22:26:41.601Z,25.22
2022-08-12T22:31:32.528Z,25.17
2022-08-12T22:36:29.286Z,25.12
2022-08-12T22:41:31.109Z,25.08
2022-08-12T22:46:32.958Z,25.03
2022-08-12T22:51:25.716Z,24.99
2022-08-12T22:56:15.194Z,24.93
2022-08-12T23:01:05.024Z,24.89
2022-08-12T23:05:56.827Z,24.93
2022-08-12T23:10:59.200Z,24.88
2022-08-12T23:15:54.621Z,24.84
2022-08-12T23:20:45.569Z,24.83
2022-08-12T23:25:54.436Z,24.81
2022-08-12T23:30:49.007Z,24.77
2022-08-12T23:35:53.614Z,24.71
2022-08-12T23:40:49.874Z,25.12
2022-08-12T23:45:39.497Z,25.21
2022-08-12T23:50:51.832Z,25.20
2022-08-12T23:55:45.708Z,25.20
